Map

Track Data

SID SEASON NUMBER BASIN SUBBASIN NAME ISO_TIME NATURE LAT LON WMO_WIND WMO_PRES WMO_AGENCY TRACK_TYPE DIST2LAND LANDFALL IFLAG USA_AGENCY USA_ATCF_ID USA_LAT USA_LON USA_RECORD USA_STATUS USA_WIND USA_PRES USA_SSHS USA_R34_NE USA_R34_SE USA_R34_SW USA_R34_NW USA_R50_NE USA_R50_SE USA_R50_SW USA_R50_NW USA_R64_NE USA_R64_SE USA_R64_SW USA_R64_NW USA_POCI USA_ROCI USA_RMW USA_EYE TOKYO_LAT TOKYO_LON TOKYO_GRADE TOKYO_WIND TOKYO_PRES TOKYO_R50_DIR TOKYO_R50_LONG TOKYO_R50_SHORT TOKYO_R30_DIR TOKYO_R30_LONG TOKYO_R30_SHORT TOKYO_LAND CMA_LAT CMA_LON CMA_CAT CMA_WIND CMA_PRES HKO_LAT HKO_LON HKO_CAT HKO_WIND HKO_PRES NEWDELHI_LAT NEWDELHI_LON NEWDELHI_GRADE NEWDELHI_WIND NEWDELHI_PRES NEWDELHI_CI NEWDELHI_DP NEWDELHI_POCI REUNION_LAT REUNION_LON REUNION_TYPE REUNION_WIND REUNION_PRES REUNION_TNUM REUNION_CI REUNION_RMW REUNION_R34_NE REUNION_R34_SE REUNION_R34_SW REUNION_R34_NW REUNION_R50_NE REUNION_R50_SE REUNION_R50_SW REUNION_R50_NW REUNION_R64_NE REUNION_R64_SE REUNION_R64_SW REUNION_R64_NW BOM_LAT BOM_LON BOM_TYPE BOM_WIND BOM_PRES BOM_TNUM BOM_CI BOM_RMW BOM_R34_NE BOM_R34_SE BOM_R34_SW BOM_R34_NW BOM_R50_NE BOM_R50_SE BOM_R50_SW BOM_R50_NW BOM_R64_NE BOM_R64_SE BOM_R64_SW BOM_R64_NW BOM_ROCI BOM_POCI BOM_EYE BOM_POS_METHOD BOM_PRES_METHOD NADI_LAT NADI_LON NADI_CAT NADI_WIND NADI_PRES WELLINGTON_LAT WELLINGTON_LON WELLINGTON_WIND WELLINGTON_PRES DS824_LAT DS824_LON DS824_STAGE DS824_WIND DS824_PRES TD9636_LAT TD9636_LON TD9636_STAGE TD9636_WIND TD9636_PRES TD9635_LAT TD9635_LON TD9635_WIND TD9635_PRES TD9635_ROCI NEUMANN_LAT NEUMANN_LON NEUMANN_CLASS NEUMANN_WIND NEUMANN_PRES MLC_LAT MLC_LON MLC_CLASS MLC_WIND MLC_PRES USA_GUST BOM_GUST BOM_GUST_PER REUNION_GUST REUNION_GUST_PER USA_SEAHGT USA_SEARAD_NE USA_SEARAD_SE USA_SEARAD_SW USA_SEARAD_NW STORM_SPEED STORM_DIR
1963167N09156 1963 52 WP MM TRIX 1963-06-15 18:00:00 TS 9.00000 155.600 1004 tokyo main 1410 1391 _OO___________ -1 9.00000 156.200 2 1004 0 0 0 9.00000 155.000 0 1008 10 270
1963167N09156 1963 52 WP MM TRIX 1963-06-15 21:00:00 TS 9.00019 155.114 main 1391 1377 _PP___________ -1 9.00039 155.505 2 1006 0 0 9.00000 154.723 0 1008 9 270
1963167N09156 1963 52 WP MM TRIX 1963-06-16 00:00:00 TS 9.00000 154.650 1008 tokyo main 1377 1361 _OO___________ -1 9.00000 154.900 2 1008 0 0 0 9.00000 154.400 0 1008 9 270
1963167N09156 1963 52 WP MM TRIX 1963-06-16 03:00:00 TS 8.99989 154.221 main 1361 1349 _PP___________ -1 8.99976 154.435 2 1008 0 0 9.00002 154.008 0 1008 8 270
1963167N09156 1963 52 WP MM TRIX 1963-06-16 06:00:00 TS 9.00000 153.800 1008 tokyo main 1349 1340 _OO___________ -1 9.00000 154.000 2 1008 0 0 0 9.00000 153.600 0 1008 9 270
1963167N09156 1963 52 WP MM TRIX 1963-06-16 09:00:00 TS 8.99626 153.342 main 1337 1329 _PP___________ -1 8.99257 153.442 2 1008 0 0 8.99994 153.243 0 1008 9 270
1963167N09156 1963 52 WP MM TRIX 1963-06-16 12:00:00 TS 9.00000 152.900 1008 tokyo main 1329 1323 _OO___________ -1 9.00000 152.900 2 1008 0 0 0 9.00000 152.900 0 1008 8 272
1963167N09156 1963 52 WP MM TRIX 1963-06-16 15:00:00 TS 9.02494 152.506 main 1323 1318 _PP___________ -1 9.04992 152.463 2 1007 0 0 8.99997 152.550 0 1008 7 274
1963167N09156 1963 52 WP MM TRIX 1963-06-16 18:00:00 TS 9.05000 152.150 1006 tokyo main 1330 1326 _OO___________ -1 9.10000 152.100 2 1006 0 0 0 9.00000 152.200 0 1008 7 272
1963167N09156 1963 52 WP MM TRIX 1963-06-16 21:00:00 TS 9.04996 151.814 main 1314 1312 _PP___________ -1 9.10744 151.785 2 1007 0 0 8.99249 151.842 0 1008 6 270
1963167N09156 1963 52 WP MM TRIX 1963-06-17 00:00:00 TS 9.05000 151.500 1008 tokyo main 1323 1312 _OO___________ -1 9.10000 151.500 2 1008 0 0 0 9.00000 151.500 0 1008 6 272
1963167N09156 1963 52 WP MM TRIX 1963-06-17 03:00:00 TS 9.07498 151.189 main 1322 1313 _PP___________ -1 9.09999 151.193 2 1007 0 0 9.04997 151.185 0 1007 6 275
1963167N09156 1963 52 WP MM TRIX 1963-06-17 06:00:00 TS 9.10000 150.900 1006 tokyo main 1313 1307 _OO___________ -1 9.10000 150.900 2 1006 0 0 0 9.10000 150.900 0 1006 5 272
1963167N09156 1963 52 WP MM TRIX 1963-06-17 09:00:00 TS 9.09622 150.642 main 1304 1298 _PP___________ -1 9.09247 150.642 2 1006 0 0 9.09997 150.642 0 1006 5 270
1963167N09156 1963 52 WP MM TRIX 1963-06-17 12:00:00 TS 9.10000 150.400 1006 tokyo main 1298 1292 _OO___________ -1 9.10000 150.400 2 1006 0 0 0 9.10000 150.400 0 1006 5 275
1963167N09156 1963 52 WP MM TRIX 1963-06-17 15:00:00 TS 9.14248 150.150 main 1292 1290 _PP___________ -1 9.14248 150.150 2 1006 0 0 9.14248 150.150 0 1006 5 281
1963167N09156 1963 52 WP MM TRIX 1963-06-17 18:00:00 TS 9.20000 149.900 1006 tokyo main 1296 1291 _OO___________ -1 9.20000 149.900 2 1006 0 0 0 9.20000 149.900 0 1006 5 282
1963167N09156 1963 52 WP MM TRIX 1963-06-17 21:00:00 TS 9.24997 149.657 main 1291 1291 _PP___________ -1 9.24997 149.657 2 1005 0 0 9.24997 149.657 0 1005 5 281
1963167N09156 1963 52 WP MM TRIX 1963-06-18 00:00:00 TS 9.30000 149.400 1004 tokyo main 1296 1291 _OO___________ -1 9.30000 149.400 2 1004 0 0 0 9.30000 149.400 0 1004 5 280
1963167N09156 1963 52 WP MM TRIX 1963-06-18 03:00:00 TS 9.34622 149.115 main 1291 1291 _PP___________ -1 9.34247 149.115 2 1002 0 0 9.34997 149.115 0 1003 6 280
1963167N09156 1963 52 WP MM TRIX 1963-06-18 06:00:00 TS 9.40000 148.800 1000 tokyo main 1297 1295 _OO___________ -1 9.40000 148.800 2 1000 0 0 0 9.40000 148.800 0 1002 6 281
1963167N09156 1963 52 WP MM TRIX 1963-06-18 09:00:00 TS 9.47494 148.473 main 1305 1302 _PP___________ -1 9.49994 148.473 2 1001 0 0 9.44994 148.472 0 1002 7 282
1963167N09156 1963 52 WP MM TRIX 1963-06-18 12:00:00 TS 9.55000 148.100 1002 tokyo main 1313 1311 _OO___________ -1 9.60000 148.100 2 1002 0 0 0 9.50000 148.100 0 1002 8 279
1963167N09156 1963 52 WP MM TRIX 1963-06-18 15:00:00 TS 9.60752 147.658 main 1311 1311 _PP___________ -1 9.66502 147.658 2 1001 0 0 9.55002 147.658 0 1001 9 276
1963167N09156 1963 52 WP MM TRIX 1963-06-18 18:00:00 TS 9.65000 147.200 1000 tokyo main 1322 1311 _OO___________ -1 9.70000 147.200 2 1000 0 0 0 9.60000 147.200 0 1000 8 275
1963167N09156 1963 52 WP MM TRIX 1963-06-18 21:00:00 TS 9.67484 146.815 main 1322 1322 _PP___________ -1 9.69984 146.815 2 1000 0 0 9.64984 146.815 0 1000 8 274
1963167N09156 1963 52 WP MM TRIX 1963-06-19 00:00:00 TS 9.70000 146.400 1000 tokyo main 1322 1322 _OO___________ -1 9.70000 146.400 2 1000 0 0 0 9.70000 146.400 0 1000 9 274
1963167N09156 1963 52 WP MM TRIX 1963-06-19 03:00:00 TS 9.73868 145.887 main 1324 1324 _PP___________ -1 9.73493 145.887 2 1000 0 0 9.74243 145.887 0 1000 11 275
1963167N09156 1963 52 WP MM TRIX 1963-06-19 06:00:00 TS 9.80000 145.300 1000 tokyo main 1341 1341 _OO___________ -1 9.80000 145.300 2 1000 0 0 0 9.80000 145.300 0 1000 12 276
1963167N09156 1963 52 WP MM TRIX 1963-06-19 09:00:00 TS 9.87362 144.680 main 1361 1361 _PP___________ -1 9.86987 144.680 2 1001 0 0 9.87737 144.680 0 1001 13 279
1963167N09156 1963 52 WP MM TRIX 1963-06-19 12:00:00 TS 10.0000 144.000 1002 tokyo main 1386 1386 _OO___________ -1 10.0000 144.000 2 1002 0 0 0 10.0000 144.000 0 1002 15 284
1963167N09156 1963 52 WP MM TRIX 1963-06-19 15:00:00 TS 10.2215 143.213 main 1428 1426 _PP___________ -1 10.2502 143.213 2 1002 0 0 10.1927 143.213 0 1002 15 287
1963167N09156 1963 52 WP MM TRIX 1963-06-19 18:00:00 TS 10.4500 142.500 1002 tokyo main 1437 1426 _OO___________ -1 10.5000 142.500 2 1002 0 0 0 10.4000 142.500 0 1002 12 288
1963167N09156 1963 52 WP MM TRIX 1963-06-19 21:00:00 TS 10.5897 142.040 main 1430 1427 _PP___________ -1 10.6222 142.040 2 1003 0 0 10.5572 142.040 0 1003 8 288
1963167N09156 1963 52 WP MM TRIX 1963-06-20 00:00:00 TS 10.7000 141.700 1004 tokyo main 1431 1425 _OO___________ -1 10.7000 141.700 2 1004 0 0 0 10.7000 141.700 0 1004 7 287
1963167N09156 1963 52 WP MM TRIX 1963-06-20 03:00:00 TS 10.8025 141.335 main 1430 1426 _PP___________ -1 10.7700 141.335 2 1005 0 0 10.8350 141.335 0 1005 7 290
1963167N09156 1963 52 WP MM TRIX 1963-06-20 06:00:00 TS 10.9500 141.000 1006 tokyo main 1437 1427 _OO___________ -1 10.9000 141.000 2 1006 0 0 0 11.0000 141.000 0 1006 8 303
1963167N09156 1963 52 WP MM TRIX 1963-06-20 09:00:00 TS 11.2137 140.693 main 1445 1445 _PP___________ -1 11.1849 140.693 2 1006 0 0 11.2424 140.693 0 1006 8 313
1963167N09156 1963 52 WP MM TRIX 1963-06-20 12:00:00 TS 11.5000 140.400 1006 tokyo main 1465 1465 _OO___________ -1 11.5000 140.400 2 1006 0 0 0 11.5000 140.400 0 1006 8 312
1963167N09156 1963 52 WP MM TRIX 1963-06-20 15:00:00 TS 11.7111 140.122 main 1475 1475 _PP___________ -1 11.7073 140.145 2 1006 0 0 11.7150 140.100 0 1006 7 304
1963167N09156 1963 52 WP MM TRIX 1963-06-20 18:00:00 TS 11.9000 139.800 1006 tokyo main 1486 1479 _OO___________ -1 11.9000 139.800 2 1006 0 0 0 11.9000 139.800 0 1006 8 299
1963167N09156 1963 52 WP MM TRIX 1963-06-20 21:00:00 TS 12.1263 139.369 main 1479 1430 _PP___________ -1 12.1727 139.223 2 1006 0 0 12.0799 139.515 0 1006 10 294
1963167N09156 1963 52 WP MM TRIX 1963-06-21 00:00:00 TS 12.3000 138.900 1006 tokyo main 1430 1391 _OO___________ -1 12.4000 138.600 2 1006 0 0 0 12.2000 139.200 0 1006 9 285
1963167N09156 1963 52 WP MM TRIX 1963-06-21 03:00:00 TS 12.3662 138.460 main 1391 1348 _PP___________ -1 12.4948 138.120 2 1006 0 0 12.2376 138.800 0 1006 8 273
1963167N09156 1963 52 WP MM TRIX 1963-06-21 06:00:00 TS 12.3500 138.050 1006 tokyo main 1348 1304 _OO___________ -1 12.5000 137.700 2 1006 0 0 0 12.2000 138.400 0 1006 8 266
1963167N09156 1963 52 WP MM TRIX 1963-06-21 09:00:00 TS 12.3162 137.678 main 1304 1269 _PP___________ -1 12.5025 137.270 2 1007 0 0 12.1299 138.085 0 1007 7 258
1963167N09156 1963 52 WP MM TRIX 1963-06-21 12:00:00 TS 12.2000 137.350 1008 tokyo main 1269 1222 _OO___________ -1 12.4000 136.900 2 1008 0 0 0 12.0000 137.800 0 1008 7 243
1963167N09156 1963 52 WP MM TRIX 1963-06-21 15:00:00 TS 11.9912 137.019 main 1222 1193 _PP___________ -1 12.1450 136.560 2 1008 0 0 11.8375 137.477 0 1008 7 227
1963167N09156 1963 52 WP MM TRIX 1963-06-21 18:00:00 TS 11.7000 136.800 1008 tokyo main 1193 1186 _OO___________ -1 11.8000 136.400 2 1008 0 0 0 11.6000 137.200 0 1008 7 199
1963167N09156 1963 52 WP MM TRIX 1963-06-21 21:00:00 TS 11.3725 136.803 main 1186 1177 _PP___________ -1 11.4726 136.578 2 1008 0 0 11.2724 137.028 0 1008 7 175
1963167N09156 1963 52 WP MM TRIX 1963-06-22 00:00:00 TS 11.0000 136.850 1008 tokyo main 1187 1166 _OO___________ -1 11.1000 136.800 2 1008 0 0 0 10.9000 136.900 0 1008 8 183
1963167N09156 1963 52 WP MM TRIX 1963-06-22 03:00:00 TS 10.5812 136.770 main 1166 1134 _PP___________ -1 10.6274 136.775 2 1008 0 0 10.5350 136.765 0 1008 8 197
1963167N09156 1963 52 WP MM TRIX 1963-06-22 06:00:00 TS 10.2000 136.600 1008 tokyo main 1134 1105 _OO___________ -1 10.2000 136.600 2 1008 0 0 0 10.2000 136.600 0 1008 8 212
1963167N09156 1963 52 WP MM TRIX 1963-06-22 09:00:00 TS 9.91503 136.347 main 1094 1071 _PP___________ -1 9.93256 136.322 2 1007 0 0 9.89750 136.372 0 1007 7 230
1963167N09156 1963 52 WP MM TRIX 1963-06-22 12:00:00 TS 9.75000 136.050 1007 tokyo main 1071 1036 _OO___________ -1 9.80000 136.000 2 1007 0 0 0 9.70000 136.100 0 1007 6 249
1963167N09156 1963 52 WP MM TRIX 1963-06-22 15:00:00 TS 9.69374 135.771 main 1036 1004 _PP___________ -1 9.74748 135.735 2 1007 0 0 9.63999 135.808 0 1007 5 270
1963167N09156 1963 52 WP MM TRIX 1963-06-22 18:00:00 TS 9.75000 135.500 1007 tokyo main 1006 985 _OO___________ -1 9.80000 135.500 2 1007 0 0 0 9.70000 135.500 0 1007 5 289
1963167N09156 1963 52 WP MM TRIX 1963-06-22 21:00:00 TS 9.86995 135.257 main 987 958 _PP___________ -1 9.91994 135.307 2 1006 0 0 9.81995 135.207 0 1006 6 301
1963167N09156 1963 52 WP MM TRIX 1963-06-23 00:00:00 TS 10.0500 135.000 1006 tokyo main 961 933 _OO___________ -1 10.1000 135.100 2 1006 0 0 0 10.0000 134.900 0 1006 7 303
1963167N09156 1963 52 WP MM TRIX 1963-06-23 03:00:00 TS 10.2387 134.686 main 933 906 _PP___________ -1 10.2850 134.808 2 1005 0 0 10.1925 134.565 0 1005 8 302
1963167N09156 1963 52 WP MM TRIX 1963-06-23 06:00:00 TS 10.4500 134.350 1004 tokyo main 908 879 _OO___________ -1 10.5000 134.500 2 1004 0 0 0 10.4000 134.200 0 1004 8 307
1963167N09156 1963 52 WP MM TRIX 1963-06-23 09:00:00 TS 10.6898 134.070 main 881 843 _PP___________ -1 10.7647 134.310 2 1004 0 0 10.6149 133.830 0 1004 8 305
1963167N09156 1963 52 WP MM TRIX 1963-06-23 12:00:00 TS 10.9000 133.700 1004 tokyo main 843 792 _OO___________ -1 11.0000 134.000 2 1004 0 0 0 10.8000 133.400 0 1004 10 291
1963167N09156 1963 52 WP MM TRIX 1963-06-23 15:00:00 TS 11.0375 133.128 main 782 722 _PP___________ -1 11.1526 133.383 2 1003 0 0 10.9225 132.872 0 1003 12 279
1963167N09156 1963 52 WP MM TRIX 1963-06-23 18:00:00 TS 11.1000 132.450 1003 tokyo main 722 649 _OO___________ -1 11.2000 132.600 2 1003 0 0 0 11.0000 132.300 0 1003 13 273
1963167N09156 1963 52 WP MM TRIX 1963-06-23 21:00:00 TS 11.1013 131.756 main 649 577 _PP___________ -1 11.1152 131.770 2 1002 0 0 11.0874 131.743 0 1002 13 268
1963167N09156 1963 52 WP MM TRIX 1963-06-24 00:00:00 TS 11.0500 131.100 1002 tokyo main 577 522 _OO___________ -1 11.0000 131.000 2 1002 0 0 0 11.1000 131.200 1 29 1002 12 264
1963167N09156 1963 52 WP MM TRIX 1963-06-24 03:00:00 TS 10.9711 130.551 main 522 467 _PP___________ -1 10.9773 130.410 2 1002 0 0 10.9649 130.692 1 29 1002 10 261
1963167N09156 1963 52 WP MM TRIX 1963-06-24 06:00:00 TS 10.9000 130.100 1002 tokyo main 467 426 _OO___________ -1 11.0000 130.000 2 1002 0 0 0 10.8000 130.200 1 29 1002 8 264
1963167N09156 1963 52 WP MM TRIX 1963-06-24 09:00:00 TS 10.8887 129.716 main 426 393 _PP___________ -1 11.0573 129.763 2 1002 0 0 10.7200 129.670 1 29 1002 7 270
1963167N09156 1963 52 WP MM TRIX 1963-06-24 12:00:00 TS 10.9000 129.400 1002 tokyo main 393 360 _OO___________ -1 11.1000 129.600 2 1002 0 0 0 10.7000 129.200 1 29 1002 6 270
1963167N09156 1963 52 WP MM TRIX 1963-06-24 15:00:00 TS 10.8849 129.110 main 360 338 _PP___________ -1 11.0575 129.365 2 1002 0 0 10.7124 128.855 1 29 1002 5 270
1963167N09156 1963 52 WP MM TRIX 1963-06-24 18:00:00 TS 10.9000 128.850 1002 tokyo main 338 305 _OO___________ -1 11.0000 129.100 2 1002 0 0 0 10.8000 128.600 1 29 1002 5 280
1963167N09156 1963 52 WP MM TRIX 1963-06-24 21:00:00 TS 10.9775 128.589 main 305 284 _PP___________ -1 10.9775 128.800 2 1002 0 0 10.9775 128.378 1 29 1002 5 292
1963167N09156 1963 52 WP MM TRIX 1963-06-25 00:00:00 TS 11.1000 128.350 1002 tokyo main 284 252 _OO___________ -1 11.0000 128.500 2 1002 0 0 0 11.2000 128.200 1 29 1002 5 299
1963167N09156 1963 52 WP MM TRIX 1963-06-25 03:00:00 TS 11.2237 128.135 main 252 242 _PP___________ -1 11.0625 128.235 2 1002 0 0 11.3850 128.035 1 29 1002 5 308
1963167N09156 1963 52 WP MM TRIX 1963-06-25 06:00:00 TS 11.4000 127.950 1002 tokyo main 244 228 _OO___________ -1 11.2000 128.000 2 1002 0 0 0 11.6000 127.900 1 29 1002 6 322
1963167N09156 1963 52 WP MM TRIX 1963-06-25 09:00:00 TS 11.6562 127.792 main 231 225 _PP___________ -1 11.4200 127.785 2 1002 0 0 11.8925 127.800 1 29 1002 6 332
1963167N09156 1963 52 WP MM TRIX 1963-06-25 12:00:00 TS 11.9500 127.650 1002 tokyo main 235 217 _OO___________ -1 11.7000 127.600 2 1002 0 0 0 12.2000 127.700 1 29 1002 6 335
1963167N09156 1963 52 WP MM TRIX 1963-06-25 15:00:00 TS 12.2287 127.515 main 217 207 _PP___________ -1 11.9925 127.457 2 1002 0 0 12.4650 127.572 1 29 1002 6 332
1963167N09156 1963 52 WP MM TRIX 1963-06-25 18:00:00 TS 12.5000 127.350 1002 tokyo main 209 182 _OO___________ -1 12.3000 127.300 2 1002 0 0 0 12.7000 127.400 1 29 1002 7 324
1963167N09156 1963 52 WP MM TRIX 1963-06-25 21:00:00 TS 12.7575 127.119 main 186 171 _PP___________ -1 12.6000 127.058 2 1002 0 0 12.9150 127.180 1 33 1002 7 316
1963167N09156 1963 52 WP MM TRIX 1963-06-26 00:00:00 TS 13.0000 126.850 1002 tokyo main 176 163 _OO___________ -1 12.9000 126.800 2 1002 0 0 0 13.1000 126.900 2 38 1002 7 313
1963167N09156 1963 52 WP MM TRIX 1963-06-26 03:00:00 TS 13.2362 126.594 main 163 155 _PP___________ -1 13.2224 126.622 2 1001 0 0 13.2500 126.565 2 38 1001 7 309
1963167N09156 1963 52 WP MM TRIX 1963-06-26 06:00:00 TS 13.4583 126.267 1000 tokyo main 163 144 OOOO_____O_O__ jtwc_wp WP051963 13.5000 126.200 40 0 13.5000 126.400 9 1000 0 0 0 13.4000 126.200 2 38 1000 13.4000 126.200 TS 35 996 13.5000 126.200 TC 40 13.5000 126.200 40 996 240 8 301
1963167N09156 1963 52 WP MM TRIX 1963-06-26 09:00:00 TS 13.6579 125.872 main 154 118 PPPP_____P_P__ WP051963 13.7001 125.808 42 0 13.6576 126.030 9 1000 0 0 13.5925 125.850 2 43 997 13.6627 125.790 TS 37 994 13.7001 125.808 TC 42 13.7001 125.808 42 994 270 9 297
1963167N09156 1963 52 WP MM TRIX 1963-06-26 12:00:00 TS 13.8619 125.457 1000 tokyo main 118 76 OOOO_____OOO__ jtwc_wp WP051963 13.9000 125.400 45 0 13.8000 125.600 9 1000 0 0 0 13.8000 125.500 3 48 995 13.9000 125.400 TS 40 993 13.9000 125.400 TC 45 13.9000 125.400 2 45 13.9000 125.400 45 992 300 9 298
1963167N09156 1963 52 WP MM TRIX 1963-06-26 15:00:00 TS 14.0744 125.054 main 78 46 PPPP_____PPP__ WP051963 14.1000 124.978 47 0 14.0424 125.200 9 995 0 0 13.9925 125.150 3 53 992 14.0999 125.042 TS 42 991 14.1000 124.978 TC 47 14.0974 125.052 2 48 14.1000 124.978 47 990 300 9 299
1963167N09156 1963 52 WP MM TRIX 1963-06-26 18:00:00 TS 14.2847 124.687 990 tokyo main 54 46 OOOO_____OPO__ jtwc_wp WP051963 14.3000 124.600 50 0 14.3000 124.800 9 990 0 0 0 14.2000 124.800 3 58 990 14.3000 124.700 TS 45 990 14.3000 124.600 TC 50 14.2956 124.713 2 52 14.3000 124.600 50 989 300 8 302
1963167N09156 1963 52 WP MM TRIX 1963-06-26 21:00:00 TS 14.4962 124.364 main 57 55 PPPP_____PPP__ WP051963 14.4924 124.327 55 0 14.5000 124.385 9 987 0 0 14.4499 124.457 3 63 987 14.5500 124.328 TS 50 988 14.4924 124.327 TC 55 14.4960 124.393 2 56 14.4924 124.327 55 987 300 7 306
1963167N09156 1963 52 WP MM TRIX 1963-06-27 00:00:00 TS 14.7143 124.071 985 tokyo main 78 78 OOOO_____OOO__ jtwc_wp WP051963 14.7000 124.100 60 0 14.7000 124.000 9 985 0 0 0 14.7000 124.100 4 68 984 14.8000 124.000 STS 55 986 14.7000 124.100 TC 60 14.7000 124.100 2 60 14.7000 124.100 60 986 300 7 309
1963167N09156 1963 52 WP MM TRIX 1963-06-27 03:00:00 TS 14.9412 123.797 main 105 105 PPPP_____PPP__ WP051963 14.9425 123.850 62 0 14.9498 123.700 9 985 0 0 14.9075 123.692 4 68 984 14.9923 123.800 STS 55 984 14.9425 123.850 TC 62 14.9110 123.840 2 61 14.9425 123.850 62 984 270 7 311
1963167N09156 1963 52 WP MM TRIX 1963-06-27 06:00:00 TS 15.1771 123.528 985 tokyo main 129 129 OOOO_____OPO__ jtwc_wp WP051963 15.2000 123.600 65 1 15.2000 123.400 9 985 0 0 0 15.1000 123.300 4 68 984 15.2000 123.600 STS 55 982 15.2000 123.600 TC 65 15.1396 123.599 2 62 15.2000 123.600 65 982 240 7 311
1963167N09156 1963 52 WP MM TRIX 1963-06-27 09:00:00 TS 15.4073 123.240 main 138 102 PPPP_____PPP__ WP051963 15.4274 123.357 65 1 15.3925 123.007 9 985 0 0 15.2924 122.977 4 68 984 15.4851 123.265 STS 55 981 15.4274 123.357 TC 65 15.3984 123.359 2 63 15.4274 123.357 65 981 240 8 311
1963167N09156 1963 52 WP MM TRIX 1963-06-27 12:00:00 TS 15.6714 122.943 985 tokyo main 93 57 OOOO_____OOO__ jtwc_wp WP051963 15.7000 123.100 65 1 15.6000 122.600 9 985 0 0 0 15.5000 122.700 4 68 984 15.8000 122.900 STS 55 981 15.7000 123.100 TC 65 15.7000 123.100 3 65 15.7000 123.100 65 981 240 8 316
1963167N09156 1963 52 WP MM TRIX 1963-06-27 15:00:00 TS 15.9990 122.653 main 57 21 PPPP_____PPP__ WP051963 16.0775 122.815 62 0 15.8699 122.250 9 985 0 0 15.7049 122.457 4 68 984 16.0849 122.600 STS 55 982 16.0775 122.815 TC 62 16.1013 122.821 3 62 16.0775 122.815 62 982 240 9 321
1963167N09156 1963 52 WP MM TRIX 1963-06-27 18:00:00 TS 16.3767 122.345 985 tokyo main 10 0 OOOO_____OPO__ jtwc_wp WP051963 16.5000 122.500 60 0 16.2000 121.900 9 985 0 0 0 16.0000 122.200 4 68 984 16.4000 122.300 STS 55 984 16.5000 122.500 TC 60 16.5370 122.518 3 60 16.5000 122.500 60 983 240 10 323
1963167N09156 1963 52 WP MM TRIX 1963-06-27 21:00:00 TS 16.8062 122.014 main 0 0 PPPP_____PPP__ WP051963 16.9222 122.195 57 0 16.6150 121.493 9 987 0 0 16.5000 121.865 4 63 987 16.8074 121.973 STS 52 985 16.9222 122.195 TC 57 16.9543 122.181 3 57 16.9222 122.195 57 984 240 11 320
1963167N09156 1963 52 WP MM TRIX 1963-06-28 00:00:00 TS 17.2000 121.629 990 tokyo main 0 0 OOOO_____OOO__ jtwc_wp WP051963 17.3000 121.800 55 0 17.0000 121.100 9 990 0 0 0 17.0000 121.500 3 58 990 17.2000 121.600 STS 50 987 17.3000 121.800 TC 55 17.3000 121.800 2 55 17.3000 121.800 55 985 240 11 309
1963167N09156 1963 52 WP MM TRIX 1963-06-28 03:00:00 TS 17.4726 121.154 main 0 0 PPPP_____PPP__ WP051963 17.6104 121.200 52 0 17.2224 120.777 9 990 0 0 17.2873 121.172 3 58 990 17.4873 121.195 STS 47 988 17.6104 121.200 TC 52 17.4802 121.335 2 55 17.6104 121.200 52 986 240 10 296
1963167N09156 1963 52 WP MM TRIX 1963-06-28 06:00:00 TS 17.6555 120.662 990 tokyo main 0 0 OOOO_____OPO__ jtwc_wp WP051963 17.8000 120.600 50 0 17.4000 120.500 9 990 0 0 0 17.5000 120.800 3 58 990 17.7000 120.700 TS 45 989 17.8000 120.600 TC 50 17.5883 120.834 2 55 17.8000 120.600 50 988 240 9 288
1963167N09156 1963 52 WP MM TRIX 1963-06-28 09:00:00 TS 17.7631 120.216 main 23 23 PPPP_____PPP__ WP051963 17.8147 120.212 52 0 17.6349 120.242 9 990 0 0 17.7277 120.292 3 58 990 17.8581 119.998 TS 47 990 17.8147 120.212 TC 52 17.6771 120.341 2 55 17.8147 120.212 52 989 210 8 285
1963167N09156 1963 52 WP MM TRIX 1963-06-28 12:00:00 TS 17.8714 119.829 990 tokyo main 62 62 OOOO_____OOO__ jtwc_wp WP051963 17.8000 119.900 55 0 17.9000 120.000 9 990 0 0 0 18.0000 119.800 3 58 990 18.0000 119.400 STS 50 991 17.8000 119.900 TC 55 17.8000 119.900 2 55 17.8000 119.900 55 990 180 7 295
1963167N09156 1963 52 WP MM TRIX 1963-06-28 15:00:00 TS 18.0696 119.511 main 101 101 PPPP_____PPP__ WP051963 17.8900 119.527 57 0 18.1924 119.757 9 990 0 0 18.4073 119.455 3 58 990 18.1696 119.217 STS 52 992 17.8900 119.527 TC 57 18.0475 119.568 2 57 17.8900 119.527 57 991 180 7 310
1963167N09156 1963 52 WP MM TRIX 1963-06-28 18:00:00 TS 18.3335 119.256 990 tokyo main 128 128 OOOO_____OPO__ jtwc_wp WP051963 18.1000 119.200 60 0 18.5000 119.500 9 990 0 0 0 18.8000 119.200 3 58 990 18.4000 119.200 STS 55 993 18.1000 119.200 TC 60 18.3342 119.290 2 60 18.1000 119.200 60 992 180 7 324
1963167N09156 1963 52 WP MM TRIX 1963-06-28 21:00:00 TS 18.6705 119.049 main 171 171 PPPP_____PPP__ WP051963 18.4849 118.985 62 0 18.8150 119.208 9 992 0 0 19.0449 118.992 3 58 990 18.7498 119.145 STS 55 994 18.4849 118.985 TC 62 18.6289 119.043 2 62 18.4849 118.985 62 993 180 8 330
1963167N09156 1963 52 WP MM TRIX 1963-06-29 00:00:00 TS 19.0000 118.843 995 tokyo main 201 201 OOOO_____OOO__ jtwc_wp WP051963 18.9000 118.800 65 1 19.1000 118.900 9 995 0 0 0 19.2000 118.800 3 58 990 19.1000 119.000 STS 55 995 18.9000 118.800 TC 65 18.9000 118.800 3 65 18.9000 118.800 65 995 180 7 321
1963167N09156 1963 52 WP MM TRIX 1963-06-29 03:00:00 TS 19.2388 118.570 main 228 228 PPPP_____PPP__ WP051963 19.1950 118.565 65 1 19.3299 118.600 9 994 0 0 19.3075 118.557 3 58 992 19.3453 118.623 STS 55 992 19.1950 118.565 TC 65 19.1037 118.513 3 66 19.1950 118.565 65 994 210 7 308
1963167N09156 1963 52 WP MM TRIX 1963-06-29 06:00:00 TS 19.4114 118.275 994 tokyo main 266 266 OOOO_____OPO__ jtwc_wp WP051963 19.4000 118.300 65 1 19.5000 118.300 9 994 0 0 0 19.4000 118.300 3 58 994 19.5000 118.200 STS 55 990 19.4000 118.300 TC 65 19.2800 118.227 3 67 19.4000 118.300 65 994 240 6 298
1963167N09156 1963 52 WP MM TRIX 1963-06-29 09:00:00 TS 19.5320 117.986 main 299 299 PPPP_____PPP__ WP051963 19.5151 117.992 67 1 19.6225 117.992 9 990 0 0 19.5500 118.050 3 58 991 19.5649 117.927 STS 57 987 19.5151 117.992 TC 67 19.4413 117.953 3 68 19.5151 117.992 67 992 240 6 292
1963167N09156 1963 52 WP MM TRIX 1963-06-29 12:00:00 TS 19.6286 117.714 986 tokyo main 333 333 OOOO_____OOO__ jtwc_wp WP051963 19.6000 117.700 70 1 19.7000 117.700 9 986 0 0 0 19.7000 117.800 3 58 989 19.6000 117.700 STS 60 985 19.6000 117.700 TC 70 19.6000 117.700 4 70 19.6000 117.700 70 990 240 5 293
1963167N09156 1963 52 WP MM TRIX 1963-06-29 15:00:00 TS 19.7311 117.484 main 356 345 PPPP_____PPP__ WP051963 19.7349 117.485 70 1 19.7274 117.442 9 985 0 0 19.7999 117.557 3 63 987 19.6474 117.465 STS 60 985 19.7349 117.485 TC 70 19.7383 117.470 4 70 19.7349 117.485 70 988 210 5 300
1963167N09156 1963 52 WP MM TRIX 1963-06-29 18:00:00 TS 19.8689 117.266 984 tokyo main 345 326 OOOO_____OPO__ jtwc_wp WP051963 19.9000 117.300 70 1 19.8000 117.200 9 984 0 0 0 19.9000 117.300 4 68 985 19.8000 117.200 STS 60 985 19.9000 117.300 TC 70 19.8823 117.262 4 70 19.9000 117.300 70 987 180 6 307
1963167N09156 1963 52 WP MM TRIX 1963-06-29 21:00:00 TS 20.0601 117.013 main 315 287 PPPP_____PPP__ WP051963 20.0625 117.100 70 1 19.9975 116.935 9 984 0 0 20.0051 116.985 4 68 982 20.1702 116.798 STS 60 985 20.0625 117.100 TC 70 20.0602 117.073 4 70 20.0625 117.100 70 985 180 6 316
1963167N09156 1963 52 WP MM TRIX 1963-06-30 00:00:00 TS 20.3286 116.786 984 tokyo main 287 238 OOOO_____OOO__ jtwc_wp WP051963 20.3000 116.900 70 1 20.3000 116.700 9 984 0 0 0 20.2000 116.700 4 68 980 20.6000 116.500 STS 60 985 20.3000 116.900 TC 70 20.3000 116.900 4 70 20.3000 116.900 70 983 180 7 330
1963167N09156 1963 52 WP MM TRIX 1963-06-30 03:00:00 TS 20.6835 116.621 main 238 192 PPPP_____PPP__ WP051963 20.6700 116.685 67 1 20.6924 116.535 9 984 0 0 20.5475 116.498 4 68 980 20.9074 116.554 STS 57 985 20.6700 116.685 TC 67 20.6272 116.708 4 67 20.6700 116.685 67 982 180 8 341
1963167N09156 1963 52 WP MM TRIX 1963-06-30 06:00:00 TS 21.0882 116.505 985 tokyo main 192 147 OOOO_____OPO__ jtwc_wp WP051963 21.1000 116.500 65 1 21.1000 116.400 9 985 0 0 0 21.0000 116.400 4 68 980 21.2000 116.700 STS 55 985 21.1000 116.500 TC 65 21.0176 116.533 4 65 21.1000 116.500 65 982 180 8 346
1963167N09156 1963 52 WP MM TRIX 1963-06-30 09:00:00 TS 21.4781 116.404 main 147 102 PPPP_____PPP__ WP051963 21.4925 116.370 62 0 21.4000 116.242 9 985 0 0 21.4925 116.412 4 68 980 21.5275 116.673 STS 55 985 21.4925 116.370 TC 62 21.4491 116.392 4 62 21.4925 116.370 62 983 180 8 349
1963167N09156 1963 52 WP MM TRIX 1963-06-30 12:00:00 TS 21.8857 116.343 985 tokyo main 102 59 OOOO_____OOO__ jtwc_wp WP051963 21.9000 116.300 60 0 21.7000 116.100 9 985 0 0 0 22.0000 116.500 4 68 980 21.9000 116.600 STS 55 985 21.9000 116.300 TC 60 21.9000 116.300 2 60 21.9000 116.300 60 985 180 8 354
1963167N09156 1963 52 WP MM TRIX 1963-06-30 15:00:00 TS 22.3139 116.313 main 59 23 PPPP_____PPP__ WP051963 22.3425 116.277 57 0 22.0625 115.985 9 985 0 0 22.4500 116.585 4 68 980 22.3050 116.520 STS 52 986 22.3425 116.277 TC 57 22.3521 116.267 2 57 22.3425 116.277 57 986 180 9 360
1963167N09156 1963 52 WP MM TRIX 1963-06-30 18:00:00 TS 22.7695 116.321 985 tokyo main 15 0 OOOO_____OPO__ jtwc_wp WP051963 22.8000 116.300 55 0 22.5000 115.900 9 985 0 0 0 22.9000 116.700 4 68 980 22.8000 116.500 STS 50 988 22.8000 116.300 TC 55 22.8024 116.284 2 55 22.8000 116.300 55 987 180 9 2
1963167N09156 1963 52 WP MM TRIX 1963-06-30 21:00:00 TS 23.2393 116.362 main 0 0 PPPP_____PPP__ WP051963 23.2500 116.342 52 0 22.9675 115.828 9 987 0 0 23.3850 116.843 4 63 982 23.4151 116.609 STS 47 989 23.2500 116.342 TC 52 23.2515 116.334 2 52 23.2500 116.342 52 988 180 10 5
1963167N09156 1963 52 WP MM TRIX 1963-07-01 00:00:00 TS 23.7421 116.421 990 tokyo main 0 0 OOOO_____OOO__ jtwc_wp WP051963 23.7000 116.400 50 0 23.6000 115.800 9 990 0 0 0 23.9000 117.000 3 58 985 24.1000 116.800 TS 45 990 23.7000 116.400 TC 50 23.7000 116.400 2 50 23.7000 116.400 50 990 180 11 8
1963167N09156 1963 52 WP MM TRIX 1963-07-01 03:00:00 TS 24.3091 116.521 main 0 0 PPP______P_P__ WP051963 24.1500 116.452 42 0 24.4826 115.842 9 992 0 0 24.3743 117.304 3 43 987 TS 24.1500 116.452 TC 42 2 24.1500 116.452 42 991 180 13 3
1963167N09156 1963 52 WP MM TRIX 1963-07-01 06:00:00 TS 25.0800 116.500 994 tokyo main 0 0 OOO______O_O__ jtwc_wp WP051963 24.6000 116.500 35 0 25.5000 115.900 9 994 0 0 0 25.0000 117.300 1 29 990 24.6000 116.500 TC 35 2 24.6000 116.500 35 993 180 20 351
1963167N09156 1963 52 WP MM TRIX 1963-07-01 09:00:00 TS 26.3249 116.188 main 0 0 _PP___________ WP051963 -1 26.5297 115.974 9 994 0 0 25.9153 116.617 1 24 992 TC 2 24 345
1963167N09156 1963 52 WP MM TRIX 1963-07-01 12:00:00 TS 27.4000 115.820 995 tokyo main 0 0 _OO___________ -1 27.5000 115.900 9 995 0 0 0 27.0000 115.500 0 19 995 20 345
1963167N09156 1963 52 WP MM TRIX 1963-07-01 15:00:00 NR 28.2492 115.591 main 0 0 _P____________ -1 28.2492 115.591 9 995 0 0 0 18 336
1963167N09156 1963 52 WP MM TRIX 1963-07-01 18:00:00 NR 29.0000 115.000 996 tokyo main 0 0 _O____________ -1 29.0000 115.000 9 996 0 0 0 23 321
1963167N09156 1963 52 WP MM TRIX 1963-07-01 21:00:00 NR 30.0254 113.923 main 0 0 _P____________ -1 30.0254 113.923 9 997 0 0 26 321
1963167N09156 1963 52 WP MM TRIX 1963-07-02 00:00:00 NR 31.0000 113.100 998 tokyo main 0 0 _O____________ -1 31.0000 113.100 9 998 0 0 0 18 342
1963167N09156 1963 52 WP MM TRIX 1963-07-02 03:00:00 NR 31.6888 113.291 main 0 0 _P____________ -1 31.6888 113.291 9 998 0 0 14 33
1963167N09156 1963 52 WP MM TRIX 1963-07-02 06:00:00 ET 32.2000 114.000 998 tokyo main 0 0 _O____________ -1 32.2000 114.000 6 998 0 0 0 15 50
1963167N09156 1963 52 WP MM TRIX 1963-07-02 09:00:00 ET 32.6520 114.668 main 0 0 _P____________ -1 32.6520 114.668 6 998 0 0 15 58
1963167N09156 1963 52 WP MM TRIX 1963-07-02 12:00:00 ET 33.0000 115.500 999 tokyo main 0 0 _O____________ -1 33.0000 115.500 6 999 0 0 0 17 69
1963167N09156 1963 52 WP MM TRIX 1963-07-02 15:00:00 ET 33.2822 116.590 main 0 0 _P____________ -1 33.2822 116.590 6 1000 0 0 17 73
1963167N09156 1963 52 WP MM TRIX 1963-07-02 18:00:00 ET 33.5000 117.500 1001 tokyo main 0 0 _O____________ -1 33.5000 117.500 6 1001 0 0 0 10 66
1963167N09156 1963 52 WP MM TRIX 1963-07-02 21:00:00 ET 33.6827 117.675 main 0 0 _P____________ -1 33.6827 117.675 6 1001 0 0 5 32
1963167N09156 1963 52 WP MM TRIX 1963-07-03 00:00:00 ET 33.9000 117.800 1001 tokyo main 0 0 _O____________ -1 33.9000 117.800 6 1001 0 0 0 9 53
1963167N09156 1963 52 WP MM TRIX 1963-07-03 03:00:00 ET 34.2131 118.530 main 0 0 _P____________ -1 34.2131 118.530 6 1001 0 0 16 64
1963167N09156 1963 52 WP MM TRIX 1963-07-03 06:00:00 ET 34.6000 119.500 1001 tokyo main 0 0 _O____________ -1 34.6000 119.500 6 1001 0 0 0 18 62
1963167N09156 1963 52 WP MM TRIX 1963-07-03 09:00:00 ET 35.0489 120.405 main 72 72 _P____________ -1 35.0489 120.405 6 1001 0 0 18 60
1963167N09156 1963 52 WP MM TRIX 1963-07-03 12:00:00 ET 35.5000 121.400 1002 tokyo main 91 91 _O____________ -1 35.5000 121.400 6 1002 0 0 0 20 66
1963167N09156 1963 52 WP MM TRIX 1963-07-03 15:00:00 ET 35.8590 122.595 main 103 103 _P____________ -1 35.8590 122.595 6 1001 0 0 20 69
1963167N09156 1963 52 WP MM TRIX 1963-07-03 18:00:00 ET 36.2000 123.700 1000 tokyo main 132 132 _O____________ -1 36.2000 123.700 6 1000 0 0 0 17 64
1963167N09156 1963 52 WP MM TRIX 1963-07-03 21:00:00 ET 36.5910 124.456 main 141 82 _P____________ -1 36.5910 124.456 6 1000 0 0 13 53
1963167N09156 1963 52 WP MM TRIX 1963-07-04 00:00:00 ET 37.0000 125.000 1000 tokyo main 82 28 _O____________ -1 37.0000 125.000 6 1000 0 0 0 12 44
1963167N09156 1963 52 WP MM TRIX 1963-07-04 03:00:00 ET 37.4823 125.524 main 28 0 _P____________ -1 37.4823 125.524 6 1000 0 0 11 42
1963167N09156 1963 52 WP MM TRIX 1963-07-04 06:00:00 ET 37.8000 125.900 1000 tokyo main 0 0 _O____________ -1 37.8000 125.900 6 1000 0 0 0 5 57
1963167N09156 1963 52 WP MM TRIX 1963-07-04 09:00:00 ET 37.7772 126.096 main 0 0 _P____________ -1 37.7772 126.096 6 1001 0 0 4 142
1963167N09156 1963 52 WP MM TRIX 1963-07-04 12:00:00 ET 37.5000 126.200 1002 tokyo main 23 22 _O____________ -1 37.5000 126.200 6 1002 0 0 0 7 164
1963167N09156 1963 52 WP MM TRIX 1963-07-04 15:00:00 ET 37.0725 126.343 main 22 0 _P____________ -1 37.0725 126.343 6 1001 0 0 9 165
1963167N09156 1963 52 WP MM TRIX 1963-07-04 18:00:00 ET 36.6000 126.500 1001 tokyo main 0 0 _O____________ -1 36.6000 126.500 6 1001 0 0 0 9 160
1963167N09156 1963 52 WP MM TRIX 1963-07-04 21:00:00 ET 36.2700 126.700 main 0 0 _P____________ -1 36.2700 126.700 6 1001 0 0 7 152
1963167N09156 1963 52 WP MM TRIX 1963-07-05 00:00:00 ET 36.0000 126.900 1001 tokyo main 0 0 _O____________ -1 36.0000 126.900 6 1001 0 0 0 6 151
1963167N09156 1963 52 WP MM TRIX 1963-07-05 03:00:00 ET 35.7475 127.063 main 0 0 _P____________ -1 35.7475 127.063 6 1000 0 0 6 154
1963167N09156 1963 52 WP MM TRIX 1963-07-05 06:00:00 ET 35.5000 127.200 1000 tokyo main 0 _O____________ -1 35.5000 127.200 6 1000 0 0 0 5 156

Digital Typhoon Data and Search

About IBTrACS Database

This database is a web-friendly format of International Best Track Archive for Climate Stewardship (IBTrACS), a global best track data archive curated by NOAA dating back to 1842.

Updated: 2021-12-03